createdAt,value
2023-04-10T00:00:25.381Z,100.00
2023-04-10T00:02:53.545Z,100.00
2023-04-10T00:05:21.652Z,100.00
2023-04-10T00:07:49.497Z,100.00
2023-04-10T00:10:17.498Z,100.00
2023-04-10T00:12:46.825Z,100.00
2023-04-10T00:15:14.690Z,100.00
2023-04-10T00:17:42.583Z,100.00
2023-04-10T00:20:11.305Z,100.00
2023-04-10T00:22:39.272Z,100.00
2023-04-10T00:25:07.972Z,100.00
2023-04-10T00:27:35.896Z,100.00
2023-04-10T00:30:05.805Z,100.00
2023-04-10T00:32:33.626Z,100.00
2023-04-10T00:35:01.635Z,100.00
2023-04-10T00:37:29.500Z,100.00
2023-04-10T00:39:57.436Z,100.00
2023-04-10T00:42:25.380Z,100.00
2023-04-10T00:44:53.286Z,100.00
2023-04-10T00:47:22.742Z,100.00
2023-04-10T00:49:50.847Z,100.00
2023-04-10T00:52:18.987Z,100.00
2023-04-10T00:54:46.924Z,100.00
2023-04-10T00:57:14.863Z,100.00
2023-04-10T00:59:42.840Z,100.00
2023-04-10T01:02:13.034Z,100.00
2023-04-10T01:04:43.303Z,100.00
2023-04-10T01:07:22.962Z,100.00
2023-04-10T01:09:58.300Z,100.00
2023-04-10T01:12:41.969Z,100.00
2023-04-10T01:15:13.999Z,100.00
2023-04-10T01:17:47.010Z,100.00
2023-04-10T01:20:23.125Z,100.00
2023-04-10T01:23:11.135Z,100.00
2023-04-10T01:25:42.349Z,100.00
2023-04-10T01:28:25.961Z,100.00
2023-04-10T01:30:59.172Z,100.00
2023-04-10T01:33:33.008Z,100.00
2023-04-10T01:36:04.234Z,100.00
2023-04-10T01:38:35.295Z,100.00
2023-04-10T01:41:04.738Z,100.00
2023-04-10T01:43:33.861Z,100.00
2023-04-10T01:46:04.388Z,100.00
2023-04-10T01:48:32.434Z,100.00
2023-04-10T01:51:01.639Z,100.00
2023-04-10T01:53:30.700Z,100.00
2023-04-10T01:55:59.340Z,100.00
2023-04-10T01:58:27.727Z,100.00
2023-04-10T02:00:55.640Z,100.00
2023-04-10T02:03:25.094Z,100.00
2023-04-10T02:06:03.580Z,100.00
2023-04-10T02:08:36.192Z,100.00
2023-04-10T02:11:11.606Z,100.00
2023-04-10T02:13:41.950Z,100.00
2023-04-10T02:16:10.939Z,100.00
2023-04-10T02:18:42.389Z,100.00
2023-04-10T02:21:10.696Z,100.00
2023-04-10T02:23:38.721Z,100.00
2023-04-10T02:26:10.730Z,100.00
2023-04-10T02:28:39.316Z,100.00
2023-04-10T02:31:07.733Z,100.00
2023-04-10T02:33:35.796Z,100.00
2023-04-10T02:36:05.598Z,100.00
2023-04-10T02:38:33.440Z,100.00
2023-04-10T02:41:01.327Z,100.00
2023-04-10T02:43:29.746Z,100.00
2023-04-10T02:45:57.657Z,100.00
2023-04-10T02:48:25.558Z,100.00
2023-04-10T02:50:57.818Z,100.00
2023-04-10T02:53:27.156Z,100.00
2023-04-10T02:55:55.643Z,100.00
2023-04-10T02:58:23.586Z,100.00
2023-04-10T03:00:51.882Z,100.00
2023-04-10T03:03:20.551Z,100.00
2023-04-10T03:05:49.542Z,100.00
2023-04-10T03:08:17.925Z,100.00
2023-04-10T03:10:48.626Z,100.00
2023-04-10T03:13:16.949Z,100.00
2023-04-10T03:15:44.874Z,100.00
2023-04-10T03:18:13.932Z,100.00
2023-04-10T03:20:43.164Z,100.00
2023-04-10T03:23:13.037Z,100.00
2023-04-10T03:25:41.229Z,100.00
2023-04-10T03:28:10.750Z,100.00
2023-04-10T03:30:38.909Z,100.00
2023-04-10T03:33:06.803Z,100.00
2023-04-10T03:35:34.715Z,100.00
2023-04-10T03:38:03.059Z,100.00
2023-04-10T03:40:31.330Z,100.00
2023-04-10T03:42:59.236Z,100.00
2023-04-10T03:45:28.602Z,100.00
2023-04-10T03:47:56.546Z,100.00
2023-04-10T03:50:24.499Z,100.00
2023-04-10T03:52:52.622Z,100.00
2023-04-10T03:55:21.047Z,100.00
2023-04-10T03:57:49.517Z,100.00
2023-04-10T04:00:18.295Z,100.00
2023-04-10T04:02:47.704Z,100.00
2023-04-10T04:05:15.750Z,100.00
2023-04-10T04:07:43.767Z,100.00
2023-04-10T04:10:11.762Z,100.00
2023-04-10T04:12:39.600Z,100.00
2023-04-10T04:15:08.667Z,100.00
2023-04-10T04:17:36.624Z,100.00
2023-04-10T04:20:07.104Z,100.00
2023-04-10T04:22:35.001Z,100.00
2023-04-10T04:25:03.215Z,100.00
2023-04-10T04:27:31.098Z,100.00
2023-04-10T04:29:59.001Z,100.00
2023-04-10T04:32:26.835Z,100.00
2023-04-10T04:34:54.760Z,100.00
2023-04-10T04:37:24.051Z,100.00
2023-04-10T04:39:52.146Z,100.00
2023-04-10T04:42:19.981Z,100.00
2023-04-10T04:44:47.898Z,100.00
2023-04-10T04:47:15.798Z,100.00
2023-04-10T04:49:43.709Z,100.00
2023-04-10T04:52:11.600Z,100.00
2023-04-10T04:54:40.874Z,100.00
2023-04-10T04:57:08.815Z,100.00
2023-04-10T04:59:38.266Z,100.00
2023-04-10T05:02:06.291Z,100.00
2023-04-10T05:04:34.179Z,100.00
2023-04-10T05:07:02.032Z,100.00
2023-04-10T05:09:29.897Z,100.00
2023-04-10T05:11:59.174Z,100.00
2023-04-10T05:14:27.129Z,100.00
2023-04-10T05:16:55.019Z,100.00
2023-04-10T05:19:23.907Z,100.00
2023-04-10T05:21:51.782Z,100.00
2023-04-10T05:24:19.650Z,100.00
2023-04-10T05:26:48.013Z,100.00
2023-04-10T05:29:17.285Z,100.00
2023-04-10T05:31:45.639Z,100.00
2023-04-10T05:34:13.564Z,100.00
2023-04-10T05:36:41.793Z,100.00
2023-04-10T05:39:09.945Z,100.00
2023-04-10T05:41:37.797Z,100.00
2023-04-10T05:44:05.725Z,100.00
2023-04-10T05:46:35.141Z,100.00
2023-04-10T05:49:03.469Z,100.00
2023-04-10T05:51:32.046Z,100.00
2023-04-10T05:53:59.950Z,100.00
2023-04-10T05:56:27.806Z,100.00
2023-04-10T05:58:55.974Z,100.00
2023-04-10T06:01:24.258Z,100.00
2023-04-10T06:03:53.672Z,100.00
2023-04-10T06:06:22.446Z,100.00
2023-04-10T06:08:50.475Z,100.00
2023-04-10T06:11:18.317Z,100.00
2023-04-10T06:13:47.209Z,100.00
2023-04-10T06:16:16.477Z,100.00
2023-04-10T06:18:44.520Z,100.00
2023-04-10T06:21:13.810Z,100.00
2023-04-10T06:23:42.539Z,100.00
2023-04-10T06:26:10.592Z,100.00
2023-04-10T06:28:38.972Z,100.00
2023-04-10T06:31:08.302Z,100.00
2023-04-10T06:33:37.017Z,100.00
2023-04-10T06:36:06.925Z,100.00
2023-04-10T06:38:37.973Z,100.00
2023-04-10T06:41:06.876Z,100.00
2023-04-10T06:43:36.155Z,100.00
2023-04-10T06:46:04.950Z,100.00
2023-04-10T06:48:33.054Z,100.00
2023-04-10T06:51:01.656Z,100.00
2023-04-10T06:53:29.829Z,100.00
2023-04-10T06:56:02.981Z,100.00
2023-04-10T06:58:36.270Z,100.00
2023-04-10T07:01:04.549Z,100.00
2023-04-10T07:03:33.859Z,100.00
2023-04-10T07:06:03.339Z,100.00
2023-04-10T07:08:31.409Z,100.00
2023-04-10T07:11:00.642Z,100.00
2023-04-10T07:13:28.515Z,100.00
2023-04-10T07:15:56.395Z,100.00
2023-04-10T07:18:24.337Z,100.00
2023-04-10T07:20:52.472Z,100.00
2023-04-10T07:23:20.533Z,100.00
2023-04-10T07:25:48.709Z,100.00
2023-04-10T07:28:17.925Z,100.00
2023-04-10T07:30:46.223Z,100.00
2023-04-10T07:33:14.306Z,100.00
2023-04-10T07:35:42.382Z,100.00
2023-04-10T07:38:10.525Z,100.00
2023-04-10T07:40:38.376Z,100.00
2023-04-10T07:43:06.254Z,100.00
2023-04-10T07:45:35.679Z,100.00
2023-04-10T07:48:03.610Z,100.00
2023-04-10T07:50:31.925Z,100.00
2023-04-10T07:53:03.516Z,100.00
2023-04-10T07:55:31.509Z,100.00
2023-04-10T07:57:59.413Z,100.00
2023-04-10T08:00:27.420Z,100.00
2023-04-10T08:02:56.945Z,100.00
2023-04-10T08:05:25.349Z,100.00
2023-04-10T08:07:53.437Z,100.00
2023-04-10T08:10:21.545Z,100.00
2023-04-10T08:12:49.474Z,100.00
2023-04-10T08:15:18.647Z,100.00
2023-04-10T08:17:46.728Z,100.00
2023-04-10T08:20:16.478Z,100.00
2023-04-10T08:22:44.403Z,100.00
2023-04-10T08:25:12.308Z,100.00
2023-04-10T08:27:40.271Z,100.00
2023-04-10T08:30:09.537Z,100.00
2023-04-10T08:32:37.591Z,100.00
2023-04-10T08:35:06.308Z,100.00
2023-04-10T08:37:35.552Z,100.00
2023-04-10T08:40:03.765Z,100.00
2023-04-10T08:42:34.504Z,100.00
2023-04-10T08:45:05.498Z,100.00
2023-04-10T08:47:38.675Z,100.00
2023-04-10T08:50:09.225Z,100.00
2023-04-10T08:52:44.460Z,100.00
2023-04-10T08:55:14.418Z,100.00
2023-04-10T08:57:50.836Z,100.00
2023-04-10T09:00:28.095Z,100.00
2023-04-10T09:02:58.769Z,100.00
2023-04-10T09:05:28.487Z,100.00
2023-04-10T09:07:57.822Z,100.00
2023-04-10T09:10:25.879Z,100.00
2023-04-10T09:12:55.066Z,100.00
2023-04-10T09:15:24.262Z,100.00
2023-04-10T09:18:03.010Z,100.00
2023-04-10T09:20:33.315Z,100.00
2023-04-10T09:23:02.848Z,100.00
2023-04-10T09:25:35.859Z,100.00
2023-04-10T09:28:05.527Z,100.00
2023-04-10T09:30:39.308Z,100.00
2023-04-10T09:33:23.973Z,100.00
2023-04-10T09:35:52.208Z,100.00
2023-04-10T09:38:22.916Z,100.00
2023-04-10T09:40:52.326Z,100.00
2023-04-10T09:43:23.629Z,100.00
2023-04-10T09:45:53.410Z,100.00
2023-04-10T09:48:23.508Z,100.00
2023-04-10T09:50:51.919Z,100.00
2023-04-10T09:53:22.704Z,100.00
2023-04-10T09:55:51.697Z,100.00
2023-04-10T09:58:20.132Z,100.00
2023-04-10T10:00:49.990Z,100.00
2023-04-10T10:03:21.126Z,100.00
2023-04-10T10:05:50.659Z,100.00
2023-04-10T10:08:19.105Z,100.00
2023-04-10T10:10:51.472Z,99.40
2023-04-10T10:13:26.606Z,96.10
2023-04-10T10:16:01.912Z,94.72
2023-04-10T10:18:38.746Z,93.88
2023-04-10T10:21:09.186Z,95.42
2023-04-10T10:23:38.959Z,91.58
2023-04-10T10:26:08.943Z,95.55
2023-04-10T10:28:37.777Z,95.17
2023-04-10T10:31:06.787Z,96.96
2023-04-10T10:33:37.226Z,96.17
2023-04-10T10:36:06.080Z,98.86
2023-04-10T10:38:35.040Z,99.07
2023-04-10T10:41:12.456Z,94.90
2023-04-10T10:43:51.910Z,90.42
2023-04-10T10:46:25.751Z,89.17
2023-04-10T10:48:59.661Z,88.68
2023-04-10T10:51:46.771Z,86.40
2023-04-10T10:54:31.448Z,86.30
2023-04-10T10:57:01.021Z,86.99
2023-04-10T10:59:59.562Z,89.61
2023-04-10T11:02:27.688Z,88.52
2023-04-10T11:04:55.922Z,85.67
2023-04-10T11:07:43.793Z,83.04
2023-04-10T11:10:11.864Z,80.09
2023-04-10T11:13:16.693Z,76.11
2023-04-10T11:15:44.881Z,71.52
2023-04-10T11:18:12.818Z,69.31
2023-04-10T11:21:10.356Z,64.91
2023-04-10T11:23:41.549Z,65.76
2023-04-10T11:26:09.450Z,66.58
2023-04-10T11:28:41.748Z,70.39
2023-04-10T11:31:18.658Z,72.44
2023-04-10T11:33:47.795Z,77.19
2023-04-10T11:36:17.584Z,76.77
2023-04-10T11:38:56.317Z,80.92
2023-04-10T11:41:28.880Z,87.16
2023-04-10T11:43:58.700Z,88.85
2023-04-10T11:46:26.861Z,85.46
2023-04-10T11:48:56.066Z,81.22
2023-04-10T11:51:24.274Z,75.86
2023-04-10T11:54:06.289Z,74.64
2023-04-10T11:56:34.195Z,74.72
2023-04-10T11:59:07.440Z,75.36
2023-04-10T12:01:35.612Z,77.44
2023-04-10T12:04:03.701Z,76.67
2023-04-10T12:06:32.286Z,75.57
2023-04-10T12:09:00.312Z,76.92
2023-04-10T12:11:29.714Z,77.92
2023-04-10T12:13:58.989Z,80.20
2023-04-10T12:16:29.019Z,81.92
2023-04-10T12:18:57.299Z,88.70
2023-04-10T12:21:26.316Z,100.00
2023-04-10T12:23:54.250Z,100.00
2023-04-10T12:26:22.341Z,100.00
2023-04-10T12:28:55.507Z,100.00
2023-04-10T12:31:33.288Z,100.00
2023-04-10T12:34:02.536Z,100.00
2023-04-10T12:36:32.250Z,100.00
2023-04-10T12:39:01.221Z,100.00
2023-04-10T12:41:31.436Z,100.00
2023-04-10T12:44:09.912Z,100.00
2023-04-10T12:46:39.954Z,100.00
2023-04-10T12:49:12.483Z,100.00
2023-04-10T12:51:47.499Z,100.00
2023-04-10T12:54:31.915Z,100.00
2023-04-10T12:57:00.738Z,100.00
2023-04-10T12:59:29.102Z,100.00
2023-04-10T13:01:58.561Z,100.00
2023-04-10T13:04:27.044Z,100.00
2023-04-10T13:06:55.119Z,100.00
2023-04-10T13:09:22.961Z,100.00
2023-04-10T13:11:52.775Z,100.00
2023-04-10T13:14:20.822Z,100.00
2023-04-10T13:16:48.989Z,100.00
2023-04-10T13:19:18.393Z,100.00
2023-04-10T13:21:46.311Z,100.00
2023-04-10T13:24:16.492Z,100.00
2023-04-10T13:26:44.763Z,100.00
2023-04-10T13:29:12.717Z,100.00
2023-04-10T13:31:40.746Z,94.23
2023-04-10T13:34:08.704Z,93.50
2023-04-10T13:36:38.113Z,90.55
2023-04-10T13:39:06.204Z,95.08
2023-04-10T13:41:34.222Z,98.21
2023-04-10T13:44:02.187Z,98.29
2023-04-10T13:46:30.076Z,91.82
2023-04-10T13:48:58.490Z,90.56
2023-04-10T13:51:27.879Z,87.32
2023-04-10T13:53:57.116Z,79.63
2023-04-10T13:56:24.977Z,80.03
2023-04-10T13:58:52.988Z,76.35
2023-04-10T14:01:21.316Z,73.25
2023-04-10T14:03:49.519Z,73.97
2023-04-10T14:06:17.567Z,73.77
2023-04-10T14:08:45.458Z,75.15
2023-04-10T14:11:14.842Z,76.40
2023-04-10T14:13:42.765Z,77.29
2023-04-10T14:16:11.891Z,79.05
2023-04-10T14:18:39.904Z,80.39
2023-04-10T14:21:08.412Z,80.85
2023-04-10T14:23:36.485Z,84.51
2023-04-10T14:26:06.572Z,87.32
2023-04-10T14:28:36.322Z,91.58
2023-04-10T14:31:06.395Z,91.95
2023-04-10T14:33:35.112Z,92.68
2023-04-10T14:36:03.234Z,91.43
2023-04-10T14:38:31.347Z,91.29
2023-04-10T14:40:59.235Z,92.84
2023-04-10T14:43:27.112Z,95.71
2023-04-10T14:45:56.776Z,98.44
2023-04-10T14:48:24.902Z,100.00
2023-04-10T14:50:52.886Z,100.00
2023-04-10T14:53:21.690Z,100.00
2023-04-10T14:55:49.579Z,100.00
2023-04-10T14:58:17.665Z,100.00
2023-04-10T15:00:45.995Z,100.00
2023-04-10T15:03:15.435Z,100.00
2023-04-10T15:05:43.542Z,100.00
2023-04-10T15:08:11.880Z,100.00
2023-04-10T15:10:39.805Z,100.00
2023-04-10T15:13:07.708Z,100.00
2023-04-10T15:15:35.654Z,100.00
2023-04-10T15:18:03.612Z,100.00
2023-04-10T15:20:33.016Z,100.00
2023-04-10T15:23:02.588Z,100.00
2023-04-10T15:25:31.130Z,100.00
2023-04-10T15:28:01.769Z,100.00
2023-04-10T15:30:30.088Z,100.00
2023-04-10T15:32:58.078Z,100.00
2023-04-10T15:35:26.614Z,100.00
2023-04-10T15:37:55.978Z,100.00
2023-04-10T15:40:23.871Z,100.00
2023-04-10T15:42:52.734Z,100.00
2023-04-10T15:45:20.756Z,100.00
2023-04-10T15:47:49.165Z,100.00
2023-04-10T15:50:17.224Z,100.00
2023-04-10T15:52:45.164Z,100.00
2023-04-10T15:55:14.491Z,100.00
2023-04-10T15:57:42.375Z,97.62
2023-04-10T16:00:11.565Z,97.57
2023-04-10T16:02:39.731Z,95.58
2023-04-10T16:05:09.373Z,95.20
2023-04-10T16:07:40.698Z,95.70
2023-04-10T16:10:09.656Z,97.26
2023-04-10T16:12:39.096Z,95.71
2023-04-10T16:15:08.382Z,95.61
2023-04-10T16:17:36.462Z,94.30
2023-04-10T16:20:07.627Z,94.25
2023-04-10T16:22:36.575Z,94.69
2023-04-10T16:27:38.865Z,97.32
2023-04-10T16:30:08.275Z,98.90
2023-04-10T16:32:36.558Z,100.00
2023-04-10T16:35:04.881Z,100.00
2023-04-10T16:37:32.814Z,100.00
2023-04-10T16:40:00.978Z,100.00
2023-04-10T16:42:29.049Z,100.00
2023-04-10T16:45:02.135Z,100.00
2023-04-10T16:47:30.318Z,100.00
2023-04-10T16:49:58.211Z,100.00
2023-04-10T16:52:26.265Z,100.00
2023-04-10T16:54:57.092Z,100.00
2023-04-10T16:57:27.738Z,100.00
2023-04-10T17:00:00.332Z,100.00
2023-04-10T17:02:29.805Z,100.00
2023-04-10T17:04:57.820Z,100.00
2023-04-10T17:07:26.036Z,100.00
2023-04-10T17:09:55.460Z,100.00
2023-04-10T17:12:23.505Z,100.00
2023-04-10T17:14:52.711Z,100.00
2023-04-10T17:17:22.409Z,100.00
2023-04-10T17:19:50.415Z,100.00
2023-04-10T17:22:19.876Z,100.00
2023-04-10T17:24:49.336Z,100.00
2023-04-10T17:27:17.471Z,100.00
2023-04-10T17:29:45.864Z,100.00
2023-04-10T17:32:14.605Z,100.00
2023-04-10T17:34:44.195Z,100.00
2023-04-10T17:37:14.764Z,100.00
2023-04-10T17:39:42.656Z,100.00
2023-04-10T17:42:10.900Z,100.00
2023-04-10T17:44:39.034Z,100.00
2023-04-10T17:47:06.914Z,100.00
2023-04-10T17:49:34.962Z,100.00
2023-04-10T17:52:04.597Z,100.00
2023-04-10T17:54:32.610Z,100.00
2023-04-10T17:57:00.947Z,100.00
2023-04-10T17:59:31.114Z,100.00
2023-04-10T18:01:59.077Z,100.00
2023-04-10T18:04:27.219Z,100.00
2023-04-10T18:06:55.208Z,100.00
2023-04-10T18:09:24.519Z,100.00
2023-04-10T18:11:52.573Z,100.00
2023-04-10T18:14:20.819Z,100.00
2023-04-10T18:16:50.185Z,100.00
2023-04-10T18:19:18.212Z,100.00
2023-04-10T18:21:46.132Z,100.00
2023-04-10T18:24:14.259Z,100.00
2023-04-10T18:26:45.270Z,100.00
2023-04-10T18:29:31.290Z,100.00
2023-04-10T18:31:59.204Z,100.00
2023-04-10T18:34:27.365Z,100.00
2023-04-10T18:36:55.759Z,100.00
2023-04-10T18:39:23.669Z,100.00
2023-04-10T18:41:53.095Z,100.00
2023-04-10T18:44:21.090Z,100.00
2023-04-10T18:46:57.511Z,100.00
2023-04-10T18:49:32.223Z,100.00
2023-04-10T18:52:00.164Z,100.00
2023-04-10T18:54:28.086Z,100.00
2023-04-10T18:56:57.814Z,100.00
2023-04-10T18:59:25.836Z,100.00
2023-04-10T19:01:53.846Z,100.00
2023-04-10T19:04:21.915Z,100.00
2023-04-10T19:06:49.897Z,100.00
2023-04-10T19:09:17.808Z,100.00
2023-04-10T19:11:47.393Z,100.00
2023-04-10T19:14:16.651Z,100.00
2023-04-10T19:16:44.571Z,100.00
2023-04-10T19:19:12.475Z,100.00
2023-04-10T19:21:40.386Z,100.00
2023-04-10T19:24:08.648Z,100.00
2023-04-10T19:26:37.592Z,100.00
2023-04-10T19:29:05.703Z,100.00
2023-04-10T19:31:35.093Z,100.00
2023-04-10T19:34:09.006Z,100.00
2023-04-10T19:36:37.525Z,100.00
2023-04-10T19:39:06.309Z,100.00
2023-04-10T19:41:34.364Z,100.00
2023-04-10T19:44:02.932Z,100.00
2023-04-10T19:46:30.929Z,100.00
2023-04-10T19:49:00.337Z,100.00
2023-04-10T19:51:28.478Z,100.00
2023-04-10T19:53:58.689Z,100.00
2023-04-10T19:56:28.713Z,100.00
2023-04-10T19:58:56.872Z,100.00
2023-04-10T20:01:25.405Z,100.00
2023-04-10T20:03:53.644Z,100.00
2023-04-10T20:06:24.167Z,100.00
2023-04-10T20:08:52.477Z,100.00
2023-04-10T20:11:20.645Z,100.00
2023-04-10T20:13:49.095Z,100.00
2023-04-10T20:16:17.538Z,100.00
2023-04-10T20:18:45.754Z,100.00
2023-04-10T20:21:13.634Z,100.00
2023-04-10T20:23:42.956Z,100.00
2023-04-10T20:26:12.944Z,100.00
2023-04-10T20:28:41.228Z,100.00
2023-04-10T20:31:11.178Z,100.00
2023-04-10T20:33:39.238Z,100.00
2023-04-10T20:36:08.203Z,100.00
2023-04-10T20:38:36.219Z,100.00
2023-04-10T20:41:05.655Z,100.00
2023-04-10T20:43:33.806Z,100.00
2023-04-10T20:46:04.522Z,100.00
2023-04-10T20:48:32.531Z,100.00
2023-04-10T20:51:00.659Z,100.00
2023-04-10T20:53:29.237Z,100.00
2023-04-10T20:55:57.203Z,100.00
2023-04-10T20:58:26.558Z,100.00
2023-04-10T21:00:54.869Z,100.00
2023-04-10T21:03:22.979Z,100.00
2023-04-10T21:05:53.477Z,100.00
2023-04-10T21:08:22.015Z,100.00
2023-04-10T21:10:49.953Z,100.00
2023-04-10T21:13:17.919Z,100.00
2023-04-10T21:15:49.665Z,100.00
2023-04-10T21:18:17.867Z,100.00
2023-04-10T21:20:46.361Z,100.00
2023-04-10T21:23:14.358Z,100.00
2023-04-10T21:25:42.240Z,100.00
2023-04-10T21:28:10.130Z,100.00
2023-04-10T21:30:38.029Z,100.00
2023-04-10T21:33:07.451Z,100.00
2023-04-10T21:35:35.448Z,100.00
2023-04-10T21:38:03.913Z,100.00
2023-04-10T21:40:34.382Z,100.00
2023-04-10T21:43:02.614Z,100.00
2023-04-10T21:45:30.990Z,100.00
2023-04-10T21:48:00.461Z,100.00
2023-04-10T21:50:29.825Z,100.00
2023-04-10T21:52:57.949Z,100.00
2023-04-10T21:55:25.794Z,100.00
2023-04-10T21:57:53.713Z,100.00
2023-04-10T22:00:23.120Z,100.00
2023-04-10T22:02:51.845Z,100.00
2023-04-10T22:05:20.008Z,100.00
2023-04-10T22:07:49.273Z,100.00
2023-04-10T22:10:17.408Z,100.00
2023-04-10T22:12:48.407Z,100.00
2023-04-10T22:15:17.305Z,100.00
2023-04-10T22:17:45.380Z,100.00
2023-04-10T22:20:13.667Z,100.00
2023-04-10T22:22:41.562Z,100.00
2023-04-10T22:25:10.952Z,100.00
2023-04-10T22:27:38.877Z,100.00
2023-04-10T22:30:09.851Z,100.00
2023-04-10T22:32:38.309Z,100.00
2023-04-10T22:35:07.663Z,100.00
2023-04-10T22:37:35.564Z,100.00
2023-04-10T22:40:03.552Z,100.00
2023-04-10T22:42:32.981Z,100.00
2023-04-10T22:45:00.872Z,100.00
2023-04-10T22:47:31.479Z,100.00
2023-04-10T22:49:59.487Z,100.00
2023-04-10T22:52:27.404Z,100.00
2023-04-10T22:54:55.254Z,100.00
2023-04-10T22:57:23.435Z,100.00
2023-04-10T22:59:52.710Z,100.00
2023-04-10T23:02:20.746Z,100.00
2023-04-10T23:04:48.733Z,100.00
2023-04-10T23:07:16.694Z,100.00
2023-04-10T23:09:44.632Z,100.00
2023-04-10T23:12:12.516Z,100.00
2023-04-10T23:14:40.401Z,100.00
2023-04-10T23:17:09.604Z,100.00
2023-04-10T23:19:37.462Z,100.00
2023-04-10T23:22:05.482Z,100.00
2023-04-10T23:24:33.562Z,100.00
2023-04-10T23:27:01.472Z,100.00
2023-04-10T23:29:29.476Z,100.00
2023-04-10T23:31:57.416Z,100.00
2023-04-10T23:34:27.579Z,100.00
2023-04-10T23:36:55.835Z,100.00
2023-04-10T23:39:23.749Z,100.00
2023-04-10T23:41:51.814Z,100.00
2023-04-10T23:44:19.695Z,100.00
2023-04-10T23:46:50.255Z,100.00
2023-04-10T23:49:18.395Z,100.00
2023-04-10T23:51:47.656Z,100.00
2023-04-10T23:54:15.691Z,100.00
2023-04-10T23:56:43.578Z,100.00
2023-04-10T23:59:11.526Z,100.00
